Time;durP1;ratioP1;P1;durP2;ratioP2;P2;SDS_P1;SDS_P2;PMS_P1;PMS_P2;Temp;Humidity;BMP_temperature;BMP_pressure;BME280_temperature;BME280_humidity;BME280_pressure;Samples;Min_cycle;Max_cycle;Signal;HPM_P1;HPM_P2
2023/04/05 00:00:58;;;;;;;31.63;12.45;;;;;;;-3.07;53.20;99067.72;5082393;28;20027;-70
2023/04/05 00:03:24;;;;;;;30.45;12.93;;;;;;;-3.07;53.28;99068.56;5082741;28;20028;-70
2023/04/05 00:05:50;;;;;;;31.10;12.18;;;;;;;-3.06;53.23;99066.69;5080896;28;20020;-70
2023/04/05 00:08:25;;;;;;;34.13;12.60;;;;;;;-3.07;53.22;99062.34;5087504;28;20032;-70
2023/04/05 00:10:51;;;;;;;29.30;12.93;;;;;;;-3.09;52.89;99065.22;5087514;28;20039;-71
2023/04/05 00:13:17;;;;;;;28.98;13.25;;;;;;;-3.12;53.45;99065.59;5084746;28;20029;-70
2023/04/05 00:15:42;;;;;;;25.60;11.95;;;;;;;-3.09;53.13;99053.66;5085542;28;20070;-71
2023/04/05 00:18:20;;;;;;;29.30;13.20;;;;;;;-3.08;53.29;99056.16;5080806;28;20023;-70
2023/04/05 00:20:55;;;;;;;36.03;14.88;;;;;;;-3.09;53.42;99051.81;5082973;28;20101;-70
2023/04/05 00:23:21;;;;;;;34.53;13.63;;;;;;;-3.06;53.20;99048.75;5085527;28;20020;-70
2023/04/05 00:25:47;;;;;;;42.78;16.77;;;;;;;-3.06;53.38;99046.06;5085688;28;20123;-70
2023/04/05 00:28:12;;;;;;;48.58;17.48;;;;;;;-3.07;53.42;99041.72;5090935;28;20026;-71
2023/04/05 00:30:39;;;;;;;53.00;19.92;;;;;;;-3.09;53.35;99035.72;5090673;28;20024;-70
2023/04/05 00:33:05;;;;;;;52.85;18.85;;;;;;;-3.09;53.62;99050.97;5089865;28;20097;-71
2023/04/05 00:35:30;;;;;;;56.35;20.50;;;;;;;-3.10;53.55;99034.06;5086518;28;20469;-70
2023/04/05 00:37:56;;;;;;;62.67;21.50;;;;;;;-3.10;53.53;99034.06;5086533;28;20027;-70
2023/04/05 00:40:22;;;;;;;74.72;26.75;;;;;;;-3.11;53.46;99032.38;5083122;28;20026;-71
2023/04/05 00:42:48;;;;;;;80.75;28.27;;;;;;;-3.11;53.60;99035.06;5086406;28;20044;-71
2023/04/05 00:45:13;;;;;;;52.88;19.58;;;;;;;-3.10;53.96;99033.22;5092524;28;20035;-71
2023/04/05 00:47:40;;;;;;;35.03;15.18;;;;;;;-3.09;53.97;99032.19;5092322;28;20472;-71
2023/04/05 00:50:08;;;;;;;26.92;11.13;;;;;;;-3.10;53.95;99028.69;5092036;28;20046;-71
2023/04/05 00:52:34;;;;;;;23.58;9.90;;;;;;;-3.09;53.54;99035.72;5090518;28;20506;-71
2023/04/05 00:55:00;;;;;;;21.83;11.35;;;;;;;-3.09;53.50;99033.03;5092133;28;20020;-71
2023/04/05 00:57:25;;;;;;;17.05;8.65;;;;;;;-3.10;53.81;99034.06;5092012;28;20379;-70
2023/04/05 00:59:51;;;;;;;17.17;9.35;;;;;;;-3.10;53.63;99026.00;5091540;28;20028;-71
2023/04/05 01:02:38;;;;;;;15.75;8.85;;;;;;;-3.14;53.81;99030.91;5073423;28;20449;-70
2023/04/05 01:05:18;;;;;;;14.18;8.15;;;;;;;-3.12;53.59;99025.34;5091867;28;20047;-71
2023/04/05 01:07:56;;;;;;;14.80;8.75;;;;;;;-3.12;53.50;99021.84;5091539;28;20036;-70
2023/04/05 01:10:33;;;;;;;18.45;9.80;;;;;;;-3.11;53.82;99026.19;5071746;28;20031;-70
2023/04/05 01:12:59;;;;;;;15.98;10.05;;;;;;;-3.07;53.74;99022.09;5090788;28;20028;-70
2023/04/05 01:15:25;;;;;;;18.15;10.45;;;;;;;-3.04;53.77;99019.03;5091550;28;20016;-70
2023/04/05 01:17:52;;;;;;;19.15;10.68;;;;;;;-3.02;53.82;99016.97;5091466;28;20024;-70
2023/04/05 01:20:19;;;;;;;19.27;10.85;;;;;;;-2.99;53.82;99006.66;5073627;28;20020;-70
2023/04/05 01:23:06;;;;;;;19.45;10.65;;;;;;;-3.01;53.91;99006.03;5070101;28;20016;-70
2023/04/05 01:26:02;;;;;;;23.83;14.25;;;;;;;-2.96;54.31;98996.56;5090453;28;20020;-69
2023/04/05 01:28:36;;;;;;;27.33;13.02;;;;;;;-2.88;53.94;98991.91;5091181;28;20108;-70
2023/04/05 01:31:19;;;;;;;31.58;15.18;;;;;;;-2.87;53.97;98992.72;5089110;28;20028;-70
2023/04/05 01:34:11;;;;;;;28.17;14.05;;;;;;;-2.77;54.13;98992.38;5088806;28;20143;-70
2023/04/05 01:36:44;;;;;;;28.00;14.82;;;;;;;-2.70;54.26;98987.88;5052902;28;20032;-71
2023/04/05 01:39:13;;;;;;;26.67;13.75;;;;;;;-2.64;54.41;98995.16;5091367;28;20396;-70
2023/04/05 01:41:40;;;;;;;24.80;12.85;;;;;;;-2.58;54.53;98991.69;5091088;28;20044;-70
2023/04/05 01:44:05;;;;;;;25.35;13.40;;;;;;;-2.55;54.33;98985.91;5071601;28;20138;-70
2023/04/05 01:46:31;;;;;;;24.67;12.77;;;;;;;-2.50;54.56;98979.94;5064993;28;20096;-71
2023/04/05 01:48:56;;;;;;;21.73;12.55;;;;;;;-2.45;54.51;98985.53;5063669;28;20117;-71
2023/04/05 01:51:22;;;;;;;24.55;12.45;;;;;;;-2.37;54.72;98986.41;5063979;28;20085;-70
2023/04/05 01:53:48;;;;;;;23.90;13.45;;;;;;;-2.34;54.62;98984.16;5063204;28;20036;-70
2023/04/05 01:56:13;;;;;;;27.45;13.55;;;;;;;-2.27;54.97;98985.00;5069724;28;20033;-70
2023/04/05 01:58:38;;;;;;;24.85;12.85;;;;;;;-2.21;54.71;98983.38;5067594;28;20074;-70
2023/04/05 02:01:04;;;;;;;24.90;12.73;;;;;;;-2.12;54.89;98976.00;5067812;28;20024;-70
2023/04/05 02:03:30;;;;;;;23.70;12.68;;;;;;;-2.06;54.78;98990.47;5065905;28;20392;-70
2023/04/05 02:05:56;;;;;;;25.08;13.13;;;;;;;-1.98;55.07;98990.31;5063598;28;20095;-70
2023/04/05 02:08:21;;;;;;;27.80;14.65;;;;;;;-1.93;55.03;98985.16;5063940;28;20472;-70
2023/04/05 02:10:47;;;;;;;25.20;12.80;;;;;;;-1.86;54.85;98980.63;5059604;28;20075;-70
2023/04/05 02:13:12;;;;;;;25.60;13.80;;;;;;;-1.80;54.77;98982.50;5068753;28;20484;-70
2023/04/05 02:15:38;;;;;;;26.02;13.05;;;;;;;-1.74;54.89;98982.72;5068209;28;20031;-70
2023/04/05 02:18:03;;;;;;;25.27;12.45;;;;;;;-1.70;55.00;98976.75;5067285;28;20032;-70
2023/04/05 02:20:30;;;;;;;20.73;12.18;;;;;;;-1.67;55.09;98973.66;5065748;28;20089;-70
2023/04/05 02:22:57;;;;;;;23.27;11.50;;;;;;;-1.62;54.91;98975.72;5050190;28;20021;-70
2023/04/05 02:25:22;;;;;;;25.95;13.25;;;;;;;-1.57;55.07;98977.78;5064541;28;20025;-71
2023/04/05 02:27:48;;;;;;;25.35;13.13;;;;;;;-1.53;54.80;98984.41;5060533;28;20043;-70
2023/04/05 02:30:14;;;;;;;28.10;15.40;;;;;;;-1.51;54.92;98980.50;5068243;28;20032;-70
2023/04/05 02:32:44;;;;;;;31.08;15.70;;;;;;;-1.54;54.99;98975.53;5067991;28;20017;-70
2023/04/05 02:35:10;;;;;;;41.05;17.30;;;;;;;-1.52;54.96;98975.31;5051310;28;20555;-70
2023/04/05 02:37:35;;;;;;;44.75;17.17;;;;;;;-1.51;54.98;98968.91;5065837;28;20048;-70
2023/04/05 02:40:04;;;;;;;39.97;16.13;;;;;;;-1.58;55.20;98968.06;5065420;28;20668;-70
2023/04/05 02:42:30;;;;;;;29.35;14.80;;;;;;;-1.65;54.88;98962.66;5051147;28;20106;-70
2023/04/05 02:44:55;;;;;;;31.75;15.35;;;;;;;-1.70;55.13;98965.97;5060648;28;20100;-70
2023/04/05 02:47:21;;;;;;;30.05;13.98;;;;;;;-1.72;54.69;98967.19;5064416;28;20028;-71
2023/04/05 02:49:49;;;;;;;29.15;13.23;;;;;;;-1.76;54.98;98961.41;5068078;28;20111;-70
2023/04/05 02:52:15;;;;;;;26.48;13.18;;;;;;;-1.77;55.09;98967.81;5067347;28;20025;-71
2023/04/05 02:54:41;;;;;;;30.33;14.13;;;;;;;-1.79;54.87;98964.50;5065911;28;20388;-70
2023/04/05 02:57:09;;;;;;;25.92;12.75;;;;;;;-1.83;55.05;98960.56;5063234;28;20163;-70
2023/04/05 02:59:35;;;;;;;28.58;12.93;;;;;;;-1.83;55.28;98963.25;5035358;28;20169;-70
2023/04/05 03:02:01;;;;;;;29.38;13.27;;;;;;;-1.89;55.15;98959.53;5059810;28;20025;-70
2023/04/05 03:04:26;;;;;;;31.15;14.88;;;;;;;-1.95;54.77;98958.47;5063735;28;20031;-70
2023/04/05 03:06:53;;;;;;;33.50;14.95;;;;;;;-1.96;55.08;98961.38;5068010;28;20029;-71
2023/04/05 03:09:20;;;;;;;31.45;14.95;;;;;;;-1.97;55.24;98963.19;5067501;28;20388;-71
2023/04/05 03:11:45;;;;;;;34.53;15.13;;;;;;;-1.97;55.11;98957.00;5058529;28;20036;-70
2023/04/05 03:14:11;;;;;;;30.00;16.00;;;;;;;-2.02;54.94;98952.22;5063547;28;20035;-70
2023/04/05 03:16:40;;;;;;;31.75;14.75;;;;;;;-2.07;55.23;98954.72;5063694;28;20020;-71
2023/04/05 03:19:05;;;;;;;32.80;15.45;;;;;;;-2.15;55.30;98955.69;5059487;28;20785;-70
2023/04/05 03:21:32;;;;;;;70.32;26.35;;;;;;;-2.20;55.08;98954.66;5060713;28;20064;-70
2023/04/05 03:23:59;;;;;;;69.38;25.40;;;;;;;-2.23;55.22;98953.19;5068876;28;20031;-71
2023/04/05 03:26:24;;;;;;;82.63;26.77;;;;;;;-2.27;55.39;98954.63;5065795;28;20032;-70
2023/04/05 03:28:50;;;;;;;82.43;28.45;;;;;;;-2.31;55.37;98950.69;5066246;28;20020;-70
2023/04/05 03:31:16;;;;;;;70.95;23.73;;;;;;;-2.35;55.47;98952.94;5050928;28;20020;-70
2023/04/05 03:33:41;;;;;;;73.68;25.70;;;;;;;-2.40;55.60;98953.53;5064161;28;20032;-70
2023/04/05 03:36:07;;;;;;;68.93;24.45;;;;;;;-2.43;55.45;98951.25;5060213;28;20028;-70
2023/04/05 03:38:33;;;;;;;56.83;21.05;;;;;;;-2.43;55.57;98950.41;5058134;28;20059;-70
2023/04/05 03:40:58;;;;;;;59.45;21.10;;;;;;;-2.47;55.46;98952.69;5066493;28;20820;-70
2023/04/05 03:43:24;;;;;;;57.10;20.38;;;;;;;-2.47;55.49;98957.25;5066968;28;20043;-70
2023/04/05 03:45:49;;;;;;;49.72;18.73;;;;;;;-2.49;55.77;98953.91;5066349;28;20098;-70
2023/04/05 03:48:19;;;;;;;48.20;19.55;;;;;;;-2.49;56.00;98953.91;5050915;28;20017;-69
2023/04/05 03:50:47;;;;;;;43.35;17.05;;;;;;;-2.50;56.20;98947.69;5061854;28;20059;-70
2023/04/05 03:53:16;;;;;;;35.63;15.60;;;;;;;-2.49;55.78;98948.56;5051260;28;20656;-70
2023/04/05 03:55:48;;;;;;;31.17;14.73;;;;;;;-2.50;55.80;98947.69;5056566;28;20036;-69
2023/04/05 03:58:14;;;;;;;33.92;15.05;;;;;;;-2.51;55.89;98945.22;5064644;28;20112;-70
2023/04/05 04:00:40;;;;;;;29.92;14.40;;;;;;;-2.54;55.91;98949.13;5065178;28;20024;-70
2023/04/05 04:03:06;;;;;;;31.13;16.92;;;;;;;-2.59;55.94;98951.56;5062498;28;20422;-70
2023/04/05 04:05:37;;;;;;;28.40;14.68;;;;;;;-2.65;55.70;98944.34;5061761;28;20045;-70
2023/04/05 04:08:03;;;;;;;25.55;13.05;;;;;;;-2.70;55.95;98940.38;5060297;28;20120;-70
2023/04/05 04:10:29;;;;;;;26.67;13.63;;;;;;;-2.72;55.98;98937.06;5061690;28;20043;-70
2023/04/05 04:12:54;;;;;;;27.83;13.70;;;;;;;-2.75;56.11;98948.19;5067791;28;20024;-70
2023/04/05 04:15:19;;;;;;;29.00;14.02;;;;;;;-2.78;56.07;98947.75;5065568;28;20592;-70
2023/04/05 04:17:45;;;;;;;29.10;14.23;;;;;;;-2.80;56.33;98944.44;5064836;28;20868;-70
2023/04/05 04:20:11;;;;;;;37.15;15.43;;;;;;;-2.82;56.36;98947.31;5062182;28;20021;-70
2023/04/05 04:22:39;;;;;;;34.03;15.18;;;;;;;-2.84;56.29;98955.56;5068485;28;20035;-70
2023/04/05 04:25:09;;;;;;;38.28;16.98;;;;;;;-2.86;56.35;98954.13;5065986;28;20040;-70
2023/04/05 04:27:35;;;;;;;;;;;;;;;-2.85;56.37;98945.03;5063905;28;20032;-70
2023/04/05 04:30:03;;;;;;;39.58;17.42;;;;;;;-2.85;56.50;98947.72;5054361;28;19946;-70
2023/04/05 04:35:17;;;;;;;42.58;21.17;;;;;;;-2.88;56.56;98945.44;5055527;28;20385;-70
2023/04/05 04:37:56;;;;;;;46.22;21.23;;;;;;;-2.89;56.94;98944.59;5057755;28;20037;-70
2023/04/05 04:40:24;;;;;;;36.70;19.83;;;;;;;-2.88;56.84;98945.44;5066309;28;20055;-71
2023/04/05 04:42:50;;;;;;;38.70;17.15;;;;;;;-2.89;56.63;98947.28;5060112;28;20039;-70
2023/04/05 04:45:18;;;;;;;29.33;14.48;;;;;;;-2.90;56.78;98953.69;5087139;28;20127;-70
2023/04/05 04:47:45;;;;;;;29.25;13.90;;;;;;;-2.89;56.96;98949.13;5088039;28;20107;-70
2023/04/05 04:50:12;;;;;;;29.88;13.75;;;;;;;-2.88;56.84;98950.78;5084547;28;20384;-71
2023/04/05 04:52:39;;;;;;;28.08;14.70;;;;;;;-2.86;56.87;98949.59;5089548;28;20369;-70
2023/04/05 04:55:06;;;;;;;25.45;12.73;;;;;;;-2.87;56.85;98947.09;5070631;28;20032;-71
2023/04/05 04:57:31;;;;;;;27.38;12.70;;;;;;;-2.85;56.70;98948.53;5086784;28;20068;-70
2023/04/05 04:59:56;;;;;;;28.67;16.98;;;;;;;-2.82;57.47;98946.47;5085959;28;20078;-71
2023/04/05 05:02:26;;;;;;;35.63;19.30;;;;;;;-2.81;57.13;98946.31;5086391;28;20028;-71
2023/04/05 05:04:52;;;;;;;38.20;19.58;;;;;;;-2.80;57.14;98941.75;5085617;28;20077;-71
2023/04/05 05:07:18;;;;;;;32.00;18.20;;;;;;;-2.78;57.16;98940.53;5073211;28;20419;-70
2023/04/05 05:09:44;;;;;;;38.50;17.90;;;;;;;-2.75;57.22;98945.53;5091731;28;20047;-70
2023/04/05 05:12:10;;;;;;;29.48;14.55;;;;;;;-2.69;57.26;98946.56;5092595;28;20111;-70
2023/04/05 05:14:36;;;;;;;25.08;14.00;;;;;;;-2.63;57.49;98953.00;5089299;28;20103;-71
2023/04/05 05:17:01;;;;;;;23.73;12.93;;;;;;;-2.58;57.54;98942.50;5089490;28;20044;-70
2023/04/05 05:19:27;;;;;;;27.40;12.73;;;;;;;-2.54;57.72;98949.13;5087741;28;20050;-71
2023/04/05 05:21:53;;;;;;;29.55;14.07;;;;;;;-2.46;57.78;98953.53;5092035;28;20020;-71
2023/04/05 05:24:19;;;;;;;32.25;15.25;;;;;;;-2.43;57.71;98951.25;5092598;28;20028;-70
2023/04/05 05:26:45;;;;;;;32.20;15.88;;;;;;;-2.35;58.01;98946.75;5073285;28;20028;-70
2023/04/05 05:29:10;;;;;;;31.13;15.05;;;;;;;-2.31;57.83;98950.69;5092872;28;20523;-70
2023/04/05 05:31:36;;;;;;;31.15;14.60;;;;;;;-2.27;58.39;98954.63;5088632;28;20038;-70
2023/04/05 05:34:01;;;;;;;27.65;14.85;;;;;;;-2.25;57.92;98956.09;5091971;28;20024;-69
2023/04/05 05:36:27;;;;;;;37.13;16.55;;;;;;;-2.20;58.33;98957.34;5091023;28;20423;-69
2023/04/05 05:38:55;;;;;;;35.30;15.13;;;;;;;-2.16;58.05;98948.66;5089945;28;20039;-69
2023/04/05 05:41:21;;;;;;;36.47;16.85;;;;;;;-2.11;58.18;98956.97;5067705;28;20021;-70
2023/04/05 05:43:46;;;;;;;29.35;14.95;;;;;;;-2.05;58.22;98954.50;5092639;28;20055;-70
2023/04/05 05:46:12;;;;;;;29.40;14.38;;;;;;;-2.00;58.20;98960.09;5091154;28;20485;-69
2023/04/05 05:48:37;;;;;;;31.95;14.95;;;;;;;-1.95;58.40;98965.72;5088790;28;20150;-70
2023/04/05 05:51:08;;;;;;;83.68;29.15;;;;;;;-1.90;58.38;98967.78;5087067;28;20036;-69
2023/04/05 05:53:35;;;;;;;77.80;29.27;;;;;;;-1.84;58.46;98966.97;5090903;28;20036;-69
2023/04/05 05:56:01;;;;;;;74.60;24.40;;;;;;;-1.77;58.87;98972.34;5091440;28;20032;-70
2023/04/05 05:58:26;;;;;;;78.00;23.92;;;;;;;-1.69;58.42;98972.19;5085873;28;20058;-70
2023/04/05 06:00:55;;;;;;;76.57;24.65;;;;;;;-1.61;59.00;98965.78;5092087;28;20035;-70
2023/04/05 06:03:22;;;;;;;42.70;15.63;;;;;;;-1.53;58.53;98969.13;5086456;28;20081;-69
2023/04/05 06:05:54;;;;;;;36.15;14.48;;;;;;;-1.44;58.66;98964.34;5091345;28;20109;-69
2023/04/05 06:08:19;;;;;;;34.47;14.48;;;;;;;-1.37;58.37;98961.66;5091117;28;20031;-70
2023/04/05 06:10:45;;;;;;;34.45;13.75;;;;;;;-1.30;58.56;98967.88;5091229;28;20028;-70
2023/04/05 06:13:10;;;;;;;25.33;11.27;;;;;;;-1.24;58.92;98964.38;5087252;28;20033;-69
2023/04/05 06:15:35;;;;;;;20.00;10.82;;;;;;;-1.20;58.88;98960.22;5089105;28;20036;-70
2023/04/05 06:18:01;;;;;;;23.13;10.50;;;;;;;-1.16;59.00;98962.50;5088556;28;20086;-69
2023/04/05 06:20:26;;;;;;;20.58;9.30;;;;;;;-1.13;59.29;98957.53;5091320;28;20044;-72
2023/04/05 06:22:52;;;;;;;23.58;11.13;;;;;;;-1.06;58.99;98960.25;5086625;28;20271;-71
2023/04/05 06:25:18;;;;;;;22.98;12.02;;;;;;;-1.05;58.97;98959.22;5087871;28;20438;-69
2023/04/05 06:27:43;;;;;;;23.63;11.38;;;;;;;-1.02;58.76;98964.19;5090349;28;20044;-70
2023/04/05 06:30:09;;;;;;;15.48;9.57;;;;;;;-0.97;58.90;98958.97;5091335;28;20131;-70
2023/04/05 06:32:34;;;;;;;17.98;9.57;;;;;;;-0.91;59.50;98962.72;5086961;28;20028;-70
2023/04/05 06:35:02;;;;;;;19.95;10.40;;;;;;;-0.86;58.99;98960.22;5069749;28;20035;-69
2023/04/05 06:37:28;;;;;;;22.17;12.20;;;;;;;-0.79;58.83;98957.50;5087607;28;20032;-68
2023/04/05 06:39:53;;;;;;;25.58;12.10;;;;;;;-0.71;58.53;98969.91;5088204;28;20495;-69
2023/04/05 06:42:19;;;;;;;22.27;11.45;;;;;;;-0.62;58.40;98958.72;5091079;28;20066;-70
2023/04/05 06:44:55;;;;;;;23.10;12.25;;;;;;;-0.51;58.49;98957.25;5090347;28;20032;-70
2023/04/05 06:47:43;;;;;;;24.05;12.25;;;;;;;-0.37;58.70;98962.56;5087431;28;20656;-70
2023/04/05 06:50:09;;;;;;;25.95;12.27;;;;;;;-0.25;58.52;98963.56;5087435;28;20036;-69
2023/04/05 06:52:34;;;;;;;21.92;11.35;;;;;;;-0.10;58.40;98960.59;5072543;28;20085;-69
2023/04/05 06:55:00;;;;;;;22.90;12.45;;;;;;;-0.01;58.67;98961.22;5090810;28;20123;-69
2023/04/05 06:57:26;;;;;;;24.38;11.15;;;;;;;0.14;58.55;98959.03;5090062;28;20036;-71
2023/04/05 06:59:52;;;;;;;19.98;10.98;;;;;;;0.27;58.42;98960.03;5089631;28;20028;-71
2023/04/05 07:02:18;;;;;;;22.77;12.23;;;;;;;0.35;57.81;98956.22;5070055;28;20106;-69
2023/04/05 07:04:43;;;;;;;22.95;11.52;;;;;;;0.41;57.75;98963.47;5088744;28;20554;-70
2023/04/05 07:07:09;;;;;;;20.48;11.15;;;;;;;0.55;57.98;98958.78;5087422;28;20063;-70
2023/04/05 07:09:35;;;;;;;25.27;10.95;;;;;;;0.61;57.30;98971.44;5089304;28;20044;-71
2023/04/05 07:12:02;;;;;;;19.88;10.05;;;;;;;0.62;57.12;98966.84;5089779;28;20074;-70
2023/04/05 07:14:29;;;;;;;21.98;11.23;;;;;;;0.65;57.39;98961.00;5082518;28;20028;-70
2023/04/05 07:16:55;;;;;;;22.52;11.20;;;;;;;0.73;57.30;98974.25;5089918;28;20028;-70
2023/04/05 07:19:21;;;;;;;22.25;11.43;;;;;;;0.84;57.25;98973.53;5089772;28;20028;-71
2023/04/05 07:21:47;;;;;;;21.45;11.25;;;;;;;0.96;57.51;98967.44;5088850;28;20032;-71
2023/04/05 07:24:13;;;;;;;22.40;11.93;;;;;;;1.09;56.95;98963.78;5085818;28;20046;-70
2023/04/05 07:26:38;;;;;;;23.10;12.40;;;;;;;1.13;56.10;98970.41;5088094;28;20114;-70
2023/04/05 07:29:05;;;;;;;23.95;11.40;;;;;;;1.18;56.71;98965.16;5089019;28;20535;-70
2023/04/05 07:31:30;;;;;;;118.63;46.00;;;;;;;1.31;56.43;98966.91;5090021;28;20062;-69
2023/04/05 07:33:58;;;;;;;61.65;25.10;;;;;;;1.47;57.04;98960.09;5088317;28;20031;-71
2023/04/05 07:36:25;;;;;;;118.13;46.10;;;;;;;1.66;57.03;98965.47;5090230;28;20476;-71
2023/04/05 07:38:51;;;;;;;50.22;21.65;;;;;;;1.81;57.19;98957.00;5090165;28;20020;-70
2023/04/05 07:41:18;;;;;;;91.60;38.83;;;;;;;1.98;56.76;98971.56;5085044;28;20362;-71
2023/04/05 07:43:44;;;;;;;30.27;14.13;;;;;;;2.10;56.67;98962.69;5088101;28;20051;-71
2023/04/05 07:46:09;;;;;;;26.58;13.65;;;;;;;2.21;55.89;98957.31;5088705;28;20032;-71
2023/04/05 07:48:35;;;;;;;25.25;12.23;;;;;;;2.27;55.60;98971.00;5068031;28;20470;-73
2023/04/05 07:51:08;;;;;;;23.42;12.45;;;;;;;2.40;55.95;98961.84;5088195;28;20114;-72
2023/04/05 07:53:35;;;;;;;20.77;10.98;;;;;;;2.50;55.51;98962.13;5069175;28;20115;-72
2023/04/05 07:56:05;;;;;;;16.73;9.07;;;;;;;2.48;54.41;98962.34;5085637;28;20077;-72
2023/04/05 07:58:31;;;;;;;;;;;;;;;2.49;55.15;98955.06;5088984;28;20032;-73
2023/04/05 08:01:03;;;;;;;23.35;10.93;;;;;;;2.58;55.53;98961.81;5087017;28;19920;-72
2023/04/05 08:03:31;;;;;;;22.73;10.70;;;;;;;2.70;54.37;98961.81;5088097;28;20035;-73
2023/04/05 08:05:57;;;;;;;17.52;8.40;;;;;;;2.85;55.28;98949.75;5088726;28;20494;-73
2023/04/05 08:08:23;;;;;;;20.02;9.30;;;;;;;3.05;55.00;98955.63;5087791;28;20484;-74
2023/04/05 08:10:49;;;;;;;25.40;12.48;;;;;;;3.24;54.89;98956.34;5089624;28;20036;-71
2023/04/05 08:13:15;;;;;;;30.55;15.00;;;;;;;3.42;55.06;98955.41;5083802;28;20073;-71
2023/04/05 08:15:40;;;;;;;18.90;9.25;;;;;;;3.62;55.25;98947.94;5088290;28;20031;-73
2023/04/05 08:18:05;;;;;;;18.98;8.57;;;;;;;3.77;54.26;98951.00;5088464;28;20032;-74
2023/04/05 08:20:31;;;;;;;22.35;10.45;;;;;;;3.90;53.72;98944.47;5068815;28;20020;-77
2023/04/05 08:22:56;;;;;;;14.20;7.60;;;;;;;4.07;54.07;98947.25;5088319;28;20036;-76
2023/04/05 08:25:22;;;;;;;20.20;8.68;;;;;;;4.23;53.38;98939.41;5086655;28;20531;-70
2023/04/05 08:27:49;;;;;;;12.45;5.93;;;;;;;4.36;51.22;98943.72;5088783;28;20397;-70
2023/04/05 08:30:15;;;;;;;15.27;7.20;;;;;;;4.42;51.79;98942.75;5080540;28;20028;-71
2023/04/05 08:32:40;;;;;;;18.35;7.97;;;;;;;4.50;51.65;98942.31;5086570;28;20107;-70
2023/04/05 08:35:06;;;;;;;19.70;8.70;;;;;;;4.61;50.24;98948.78;5071157;28;20072;-69
2023/04/05 08:37:34;;;;;;;14.68;6.60;;;;;;;4.56;50.77;98946.78;5089852;28;20083;-71
2023/04/05 08:40:00;;;;;;;9.00;4.88;;;;;;;4.53;48.75;98941.03;5088456;28;20025;-71
2023/04/05 08:42:32;;;;;;;8.15;5.00;;;;;;;4.49;48.18;98945.28;5091944;28;20502;-72
2023/04/05 08:45:01;;;;;;;14.75;6.30;;;;;;;4.47;48.17;98940.94;5089752;28;20032;-71
2023/04/05 08:47:28;;;;;;;35.67;17.65;;;;;;;4.50;48.58;98941.50;5075705;28;20028;-72
2023/04/05 08:49:53;;;;;;;11.18;5.85;;;;;;;4.42;47.01;98940.03;5088216;28;20119;-72
2023/04/05 08:52:19;;;;;;;98.95;30.83;;;;;;;4.36;46.83;98936.38;5089168;28;20107;-71
2023/04/05 08:54:44;;;;;;;275.60;81.22;;;;;;;4.41;48.07;98935.66;5091495;28;20032;-69
2023/04/05 08:57:10;;;;;;;155.00;51.20;;;;;;;4.54;48.36;98934.53;5088044;28;20028;-70
2023/04/05 08:59:41;;;;;;;81.20;29.73;;;;;;;4.64;47.74;98934.72;5091640;28;20032;-71
2023/04/05 09:02:16;;;;;;;107.30;29.05;;;;;;;4.73;47.53;98940.56;5075579;28;20043;-70
2023/04/05 09:04:43;;;;;;;67.90;18.15;;;;;;;4.83;44.50;98943.44;5092262;28;20028;-70
2023/04/05 09:07:12;;;;;;;15.52;5.45;;;;;;;4.84;43.08;98936.94;5090629;28;20052;-70
2023/04/05 09:09:38;;;;;;;7.75;3.08;;;;;;;4.86;45.51;98945.69;5090988;28;20067;-70
2023/04/05 09:12:04;;;;;;;8.45;4.18;;;;;;;4.92;43.64;98943.84;5090489;28;20443;-71
2023/04/05 09:14:33;;;;;;;15.50;5.15;;;;;;;4.98;45.35;98937.44;5092361;28;20063;-72
2023/04/05 09:17:02;;;;;;;8.07;3.47;;;;;;;5.08;45.30;98936.75;5091980;28;20148;-71
2023/04/05 09:19:27;;;;;;;88.57;24.43;;;;;;;5.12;45.92;98937.91;5089323;28;20036;-68
2023/04/05 09:22:06;;;;;;;46.88;13.80;;;;;;;5.18;44.34;98941.53;5091630;28;20028;-70
2023/04/05 09:24:42;;;;;;;52.70;15.90;;;;;;;5.12;45.56;98937.06;5091476;28;20101;-71
2023/04/05 09:27:15;;;;;;;40.67;12.90;;;;;;;5.12;45.95;98937.06;5092752;28;20077;-70
2023/04/05 09:29:45;;;;;;;13.27;5.75;;;;;;;5.14;44.97;98934.94;5091158;28;20039;-70
2023/04/05 09:32:12;;;;;;;26.23;8.52;;;;;;;5.11;45.39;98935.44;5090708;28;20028;-69
2023/04/05 09:34:39;;;;;;;68.95;22.10;;;;;;;5.06;44.41;98939.75;5089888;28;20055;-71
2023/04/05 09:37:15;;;;;;;61.05;19.80;;;;;;;5.04;44.55;98922.84;5092732;28;20073;-72
2023/04/05 09:39:42;;;;;;;26.52;9.02;;;;;;;5.15;45.08;98928.41;5093159;28;20083;-71
2023/04/05 09:42:13;;;;;;;40.72;14.00;;;;;;;5.26;45.56;98927.50;5092369;28;20033;-72
2023/04/05 09:45:01;;;;;;;11.30;5.25;;;;;;;5.39;45.03;98922.78;5089456;28;20036;-71
2023/04/05 09:47:32;;;;;;;10.80;4.07;;;;;;;5.46;41.65;98931.59;5090749;28;20032;-70
2023/04/05 09:50:05;;;;;;;7.80;3.83;;;;;;;5.46;40.94;98926.97;5087802;28;20032;-70
2023/04/05 09:52:31;;;;;;;22.15;8.73;;;;;;;5.57;43.34;98918.97;5069833;28;20122;-70
2023/04/05 09:54:59;;;;;;;34.33;11.65;;;;;;;5.72;43.82;98921.06;5092381;28;20036;-71
2023/04/05 09:57:26;;;;;;;37.03;14.07;;;;;;;5.84;43.24;98919.03;5089853;28;20060;-70
2023/04/05 09:59:53;;;;;;;24.95;7.95;;;;;;;5.92;42.35;98915.84;5091794;28;20099;-70
2023/04/05 10:02:18;;;;;;;14.10;6.38;;;;;;;5.93;43.79;98917.50;5071348;28;20031;-71
2023/04/05 10:04:45;;;;;;;31.35;12.45;;;;;;;6.04;44.14;98915.75;5092126;28;20471;-70
2023/04/05 10:07:13;;;;;;;21.30;7.10;;;;;;;6.11;43.35;98924.53;5089413;28;20120;-70
2023/04/05 10:09:39;;;;;;;8.23;3.80;;;;;;;6.09;39.53;98925.88;5093439;28;20028;-71
2023/04/05 10:12:07;;;;;;;6.47;3.28;;;;;;;5.86;40.31;98922.31;5093533;28;20028;-72
2023/04/05 10:14:32;;;;;;;8.55;4.10;;;;;;;5.78;40.46;98920.84;5088973;28;20032;-72
2023/04/05 10:17:11;;;;;;;5.68;3.65;;;;;;;5.74;40.04;98913.47;5091466;28;20027;-72
2023/04/05 10:19:54;;;;;;;7.32;3.17;;;;;;;5.67;39.75;98910.94;5092979;28;20028;-72
2023/04/05 10:22:27;;;;;;;10.27;4.35;;;;;;;5.54;40.72;98912.09;5069900;28;20065;-72
2023/04/05 10:25:31;;;;;;;10.18;4.50;;;;;;;5.47;41.65;98903.31;5093309;28;20024;-72
2023/04/05 10:28:10;;;;;;;9.20;4.53;;;;;;;5.40;41.07;98908.13;5091816;28;20024;-71
2023/04/05 10:30:42;;;;;;;7.18;4.15;;;;;;;5.43;42.12;98904.91;5083686;28;20028;-68
2023/04/05 10:33:19;;;;;;;6.53;3.40;;;;;;;5.45;40.34;98910.91;5068418;28;20024;-71
2023/04/05 10:35:48;;;;;;;9.52;5.43;;;;;;;5.44;41.13;98910.06;5085876;28;20103;-70
2023/04/05 10:38:24;;;;;;;6.72;3.70;;;;;;;5.51;41.92;98893.56;5091017;28;20024;-71
2023/04/05 10:41:13;;;;;;;15.43;5.25;;;;;;;5.56;41.05;98904.50;5088680;28;20074;-70
2023/04/05 10:43:40;;;;;;;9.43;4.30;;;;;;;5.51;39.98;98905.28;5081596;28;20047;-71
2023/04/05 10:46:06;;;;;;;13.50;4.15;;;;;;;5.46;39.63;98902.50;5086064;28;20113;-72
2023/04/05 10:49:04;;;;;;;8.00;3.90;;;;;;;5.39;39.62;98893.69;5070913;28;20044;-70
2023/04/05 10:51:30;;;;;;;5.15;3.10;;;;;;;5.29;38.84;98896.28;5069090;28;20051;-71
2023/04/05 10:53:56;;;;;;;9.85;4.68;;;;;;;5.19;40.06;98897.78;5091511;28;20024;-72
2023/04/05 10:56:22;;;;;;;7.10;3.92;;;;;;;5.18;40.01;98893.41;5084385;28;20078;-72
2023/04/05 10:58:49;;;;;;;5.22;3.20;;;;;;;5.20;40.48;98896.72;5071147;28;20052;-72
2023/04/05 11:01:16;;;;;;;6.60;3.30;;;;;;;5.21;40.52;98894.78;5076642;28;20027;-72
2023/04/05 11:03:47;;;;;;;10.85;3.83;;;;;;;5.25;40.89;98895.13;5091117;28;20024;-72
2023/04/05 11:06:29;;;;;;;8.77;3.80;;;;;;;5.25;39.91;98898.66;5082549;28;20024;-72
2023/04/05 11:08:56;;;;;;;6.25;2.75;;;;;;;5.30;40.50;98896.03;5090732;28;20036;-72
2023/04/05 11:11:23;;;;;;;6.15;3.20;;;;;;;5.37;40.10;98887.66;5084984;28;20093;-72
2023/04/05 11:13:53;;;;;;;5.10;2.90;;;;;;;5.38;39.46;98889.31;5071175;28;20029;-71
2023/04/05 11:16:20;;;;;;;5.65;3.03;;;;;;;5.33;38.40;98879.19;5075920;28;20024;-72
2023/04/05 11:18:47;;;;;;;5.60;3.33;;;;;;;5.40;39.49;98889.09;5090152;28;20043;-72
2023/04/05 11:21:24;;;;;;;4.82;3.03;;;;;;;5.46;40.18;98893.53;5086520;28;20550;-72
2023/04/05 11:24:00;;;;;;;5.53;2.70;;;;;;;5.46;38.84;98885.34;5071027;28;20036;-72
2023/04/05 11:26:38;;;;;;;8.73;3.30;;;;;;;5.43;39.48;98885.88;5083301;28;20036;-71
2023/04/05 11:29:03;;;;;;;5.60;2.63;;;;;;;5.40;39.72;98880.91;5090323;28;20028;-72
2023/04/05 11:31:29;;;;;;;6.85;2.95;;;;;;;5.49;40.39;98887.59;5084740;28;20028;-71